Terminal Aerodrome Forecast
Issued by NWS Charleston, WV

Current Version | Previous Version | Graphics & Text | Print | Product List | Glossary On
Versions: 1 2 3 4 5 6 7 8 9 10 11 12 13 14 15 16 17 18 19 20 21
066
FTUS41 KRLX 272333
TAFBKW
TAF
KBKW 272333Z 2800/2824 00000KT P6SM +SHRA VCTS BKN040CB
     FM280300 00000KT P6SM VCTS BKN040CB
     FM280500 VRB03KT 6SM HZ BKN040
     FM280900 16005KT P6SM +SHRA VCTS BKN030CB
     FM281400 19006KT P6SM VCTS BKN035CB
     FM281800 22007KT 6SM +SHRA HZ VCTS BKN035CB
     FM282300 25005KT P6SM VCTS BKN040CB=

USA.gov is the U.S. government's official web portal to all federal, state and local government web resources and services.